^^
Datos históricos de la estación: Murcia-Puente Tocinos
Diario Informe para Noviembre 15, 2019 Unidades:  Ambas    Ingés   Métrico
Diario Semanal Mensual Anual
  Máxima: Mínima: Promedio:
Temperatura: 58.8 °F /  14.9 °C 46.9 °F /  8.3 °C 53.4 °F /  11.9 °C
Punto de rocio: 40.6 °F /  4.8 °C 30.4 °F /  -0.9 °C 35.2 °F /  1.8 °C
Humedad: 71% 34% 51%
Velocidad viento: 13mph /  20.9km/h - 5.6mph /  9km/h
Racha viento: 23.5mph /  37.8km/h - -
Viento- - SO
Presión: 29.7 in /  1006.7 hPa 29.6 in /  1001.1 hPa -
Precipitación: 0 in /  0.0 mm    
 
 
Tabla de datos para Noviembre 15, 2019
Hora Temperatura Punto de rocio Presión Viento Velocidad viento Racha viento Humedad Intensidad lluvia(por hora) Nubes
00:04 54.3 °F /  12.4 °C 35.4 °F /  1.9 °C 29.6in /  1001.4hPa Sur 5.3mph /  8.5km/h 11.5mph /  18.5km/h 49% 0in /  0.0mm
00:09 54.3 °F /  12.4 °C 35.4 °F /  1.9 °C 29.6in /  1001.5hPa Sur 5.2mph /  8.4km/h 12mph /  19.3km/h 48.6% 0in /  0.0mm
00:14 54.5 °F /  12.5 °C 35.4 °F /  1.9 °C 29.6in /  1001.5hPa SSE 6.6mph /  10.7km/h 13mph /  20.9km/h 48.5% 0in /  0.0mm
00:19 54.1 °F /  12.3 °C 35.6 °F /  2 °C 29.6in /  1001.5hPa SSE 7.4mph /  11.9km/h 13mph /  20.9km/h 49.3% 0in /  0.0mm
00:24 54.1 °F /  12.3 °C 35.8 °F /  2.1 °C 29.6in /  1001.5hPa Sur 7.5mph /  12.1km/h 14mph /  22.5km/h 49.7% 0in /  0.0mm
00:29 54.1 °F /  12.3 °C 35.8 °F /  2.1 °C 29.6in /  1001.5hPa Sur 7.6mph /  12.2km/h 14mph /  22.5km/h 49.8% 0in /  0.0mm
00:34 54 °F /  12.2 °C 36 °F /  2.2 °C 29.6in /  1001.5hPa SSE 7.5mph /  12km/h 13mph /  20.9km/h 50.3% 0in /  0.0mm
00:39 54 °F /  12.2 °C 36.1 °F /  2.3 °C 29.6in /  1001.6hPa Sur 7.4mph /  11.9km/h 12mph /  19.3km/h 51% 0in /  0.0mm
00:44 54 °F /  12.2 °C 36.1 °F /  2.3 °C 29.6in /  1001.6hPa Sur 7.4mph /  11.9km/h 11mph /  17.7km/h 51% 0in /  0.0mm
00:49 54 °F /  12.2 °C 36.5 °F /  2.5 °C 29.6in /  1001.6hPa Sur 7.4mph /  11.9km/h 13mph /  20.9km/h 51.8% 0in /  0.0mm
00:54 53.8 °F /  12.1 °C 36.7 °F /  2.6 °C 29.6in /  1001.6hPa Sur 7.4mph /  11.9km/h 13mph /  20.9km/h 52% 0in /  0.0mm
00:59 53.6 °F /  12 °C 36.9 °F /  2.7 °C 29.6in /  1001.4hPa Sur 7.4mph /  11.9km/h 13mph /  20.9km/h 52.8% 0in /  0.0mm
01:04 53.6 °F /  12 °C 36.9 °F /  2.7 °C 29.6in /  1001.4hPa Sur 8.1mph /  13.1km/h 15mph /  24.1km/h 53% 0in /  0.0mm
01:09 54 °F /  12.2 °C 36.7 °F /  2.6 °C 29.6in /  1001.4hPa SSO 8.5mph /  13.7km/h 15mph /  24.1km/h 52.3% 0in /  0.0mm
01:14 54.1 °F /  12.3 °C 36.9 °F /  2.7 °C 29.6in /  1001.4hPa SSO 8.9mph /  14.4km/h 14mph /  22.5km/h 52% 0in /  0.0mm
01:19 54.1 °F /  12.3 °C 36.7 °F /  2.6 °C 29.6in /  1001.4hPa SSO 9.2mph /  14.8km/h 15mph /  24.1km/h 51.2% 0in /  0.0mm
01:24 54.5 °F /  12.5 °C 36.5 °F /  2.5 °C 29.6in /  1001.4hPa SSO 9.2mph /  14.8km/h 18.1mph /  29.1km/h 50.5% 0in /  0.0mm
01:29 54.7 °F /  12.6 °C 36.3 °F /  2.4 °C 29.6in /  1001.2hPa SSO 9.2mph /  14.8km/h 18.4mph /  29.6km/h 50% 0in /  0.0mm
01:34 54.9 °F /  12.7 °C 36.5 °F /  2.5 °C 29.6in /  1001.2hPa SSO 10.5mph /  16.9km/h 18mph /  29km/h 50% 0in /  0.0mm
01:39 54.9 °F /  12.7 °C 36.1 °F /  2.3 °C 29.6in /  1001.2hPa SSO 11.2mph /  18km/h 16mph /  25.7km/h 49.2% 0in /  0.0mm
01:44 54.9 °F /  12.7 °C 36 °F /  2.2 °C 29.6in /  1001.1hPa SSO 10.4mph /  16.8km/h 16.1mph /  25.9km/h 49% 0in /  0.0mm
01:49 55 °F /  12.8 °C 36.1 °F /  2.3 °C 29.6in /  1001.1hPa SSO 10mph /  16.1km/h 18.4mph /  29.6km/h 49% 0in /  0.0mm
01:54 55 °F /  12.8 °C 36.1 °F /  2.3 °C 29.6in /  1001.1hPa SSO 10mph /  16.1km/h 18mph /  29km/h 49% 0in /  0.0mm
01:59 55 °F /  12.8 °C 36.1 °F /  2.3 °C 29.6in /  1001.1hPa SSO 10mph /  16.1km/h 21.9mph /  35.2km/h 49% 0in /  0.0mm
02:04 54.9 °F /  12.7 °C 36 °F /  2.2 °C 29.6in /  1001.1hPa SSO 10.1mph /  16.3km/h 22mph /  35.4km/h 49% 0in /  0.0mm
02:09 54.9 °F /  12.7 °C 35.8 °F /  2.1 °C 29.6in /  1001.3hPa SO 10.2mph /  16.4km/h 19.7mph /  31.7km/h 48.5% 0in /  0.0mm
02:14 55 °F /  12.8 °C 35.6 °F /  2 °C 29.6in /  1001.3hPa SSO 9.1mph /  14.6km/h 20mph /  32.2km/h 48% 0in /  0.0mm
02:19 55 °F /  12.8 °C 35.8 °F /  2.1 °C 29.6in /  1001.3hPa SSO 8.5mph /  13.7km/h 15mph /  24.1km/h 48% 0in /  0.0mm
02:24 55 °F /  12.8 °C 35.8 °F /  2.1 °C 29.6in /  1001.5hPa SSO 7.5mph /  12km/h 15.2mph /  24.5km/h 48% 0in /  0.0mm
02:29 55 °F /  12.8 °C 35.6 °F /  2 °C 29.6in /  1001.5hPa Sur 6.9mph /  11.1km/h 15mph /  24.1km/h 48% 0in /  0.0mm
02:34 54.9 °F /  12.7 °C 35.8 °F /  2.1 °C 29.6in /  1001.5hPa Sur 7.2mph /  11.6km/h 14mph /  22.5km/h 48.5% 0in /  0.0mm
02:39 54.5 °F /  12.5 °C 35.8 °F /  2.1 °C 29.6in /  1001.7hPa SSO 7.4mph /  11.9km/h 10mph /  16.1km/h 49% 0in /  0.0mm
02:44 54.3 °F /  12.4 °C 35.8 °F /  2.1 °C 29.6in /  1001.7hPa SSO 6.2mph /  9.9km/h 9.2mph /  14.8km/h 49.5% 0in /  0.0mm
02:49 54.1 °F /  12.3 °C 36 °F /  2.2 °C 29.6in /  1001.7hPa SO 5.4mph /  8.7km/h 11.4mph /  18.3km/h 50% 0in /  0.0mm
02:54 54 °F /  12.2 °C 36.1 °F /  2.3 °C 29.6in /  1001.8hPa SSO 5.3mph /  8.5km/h 12mph /  19.3km/h 51% 0in /  0.0mm
02:59 54 °F /  12.2 °C 36.3 °F /  2.4 °C 29.6in /  1001.8hPa SSO 5.2mph /  8.4km/h 10.4mph /  16.7km/h 51.1% 0in /  0.0mm
03:04 54 °F /  12.2 °C 36.7 °F /  2.6 °C 29.6in /  1001.8hPa SSO 6mph /  9.7km/h 10.4mph /  16.7km/h 51.9% 0in /  0.0mm
03:09 53.8 °F /  12.1 °C 36.7 °F /  2.6 °C 29.6in /  1001.9hPa SSO 6.4mph /  10.3km/h 11.2mph /  18km/h 52% 0in /  0.0mm
03:14 54 °F /  12.2 °C 36.5 °F /  2.5 °C 29.6in /  1001.9hPa SSO 6.4mph /  10.3km/h 12mph /  19.3km/h 51.8% 0in /  0.0mm
03:19 54 °F /  12.2 °C 36.5 °F /  2.5 °C 29.6in /  1001.9hPa SSO 6.4mph /  10.3km/h 10.7mph /  17.2km/h 51.5% 0in /  0.0mm
03:24 54 °F /  12.2 °C 36.5 °F /  2.5 °C 29.6in /  1001.9hPa SO 6.4mph /  10.3km/h 11mph /  17.7km/h 51.6% 0in /  0.0mm
03:29 53.8 °F /  12.1 °C 36.7 °F /  2.6 °C 29.6in /  1001.9hPa OSO 6.4mph /  10.3km/h 10mph /  16.1km/h 52% 0in /  0.0mm
03:34 53.6 °F /  12 °C 36.9 °F /  2.7 °C 29.6in /  1001.9hPa NNO 5.1mph /  8.2km/h 7mph /  11.3km/h 52.9% 0in /  0.0mm
03:39 52.9 °F /  11.6 °C 37 °F /  2.8 °C 29.6in /  1002.0hPa NO 4.3mph /  6.9km/h 5.8mph /  9.3km/h 55% 0in /  0.0mm
03:44 52 °F /  11.1 °C 37.2 °F /  2.9 °C 29.6in /  1002.0hPa NO 3.5mph /  5.7km/h 6mph /  9.7km/h 57.1% 0in /  0.0mm
03:49 51.4 °F /  10.8 °C 37 °F /  2.8 °C 29.6in /  1002.0hPa ONO 3.1mph /  5km/h 6mph /  9.7km/h 58% 0in /  0.0mm
03:54 51.3 °F /  10.7 °C 37.2 °F /  2.9 °C 29.6in /  1002.0hPa NO 3mph /  4.8km/h 5.2mph /  8.4km/h 58.5% 0in /  0.0mm
03:59 51.3 °F /  10.7 °C 37.2 °F /  2.9 °C 29.6in /  1002.0hPa NNO 2.9mph /  4.7km/h 5mph /  8km/h 59% 0in /  0.0mm
04:04 50.9 °F /  10.5 °C 37.4 °F /  3 °C 29.6in /  1002.0hPa North 2.9mph /  4.7km/h 5.4mph /  8.7km/h 59.8% 0in /  0.0mm
04:09 50.5 °F /  10.3 °C 37.6 °F /  3.1 °C 29.6in /  1002.1hPa ESE 2.9mph /  4.7km/h 6mph /  9.7km/h 60.8% 0in /  0.0mm
04:14 50.4 °F /  10.2 °C 37.4 °F /  3 °C 29.6in /  1002.1hPa ESE 2.3mph /  3.7km/h 6mph /  9.7km/h 61% 0in /  0.0mm
04:19 50.4 °F /  10.2 °C 37.8 °F /  3.2 °C 29.6in /  1002.1hPa ESE 2mph /  3.2km/h 4.6mph /  7.4km/h 61.9% 0in /  0.0mm
04:24 50.2 °F /  10.1 °C 37.8 °F /  3.2 °C 29.6in /  1002.2hPa ESE 2mph /  3.2km/h 5mph /  8km/h 62.2% 0in /  0.0mm
04:29 50.2 °F /  10.1 °C 37.8 °F /  3.2 °C 29.6in /  1002.2hPa ESE 2mph /  3.2km/h 5.2mph /  8.4km/h 62% 0in /  0.0mm
04:34 50.4 °F /  10.2 °C 37.4 °F /  3 °C 29.6in /  1002.2hPa ESE 2.2mph /  3.6km/h 5.2mph /  8.4km/h 61.1% 0in /  0.0mm
04:39 50.5 °F /  10.3 °C 37.6 °F /  3.1 °C 29.6in /  1002.2hPa ESE 2.4mph /  3.9km/h 5.8mph /  9.3km/h 60.9% 0in /  0.0mm
04:44 50.7 °F /  10.4 °C 37.4 °F /  3 °C 29.6in /  1002.1hPa ESE 3.2mph /  5.1km/h 6mph /  9.7km/h 60.3% 0in /  0.0mm
04:49 50.7 °F /  10.4 °C 37.8 °F /  3.2 °C 29.6in /  1002.1hPa ESE 3.6mph /  5.8km/h 5mph /  8km/h 60.8% 0in /  0.0mm
04:54 50.5 °F /  10.3 °C 37.8 °F /  3.2 °C 29.6in /  1002.1hPa ESE 2.8mph /  4.5km/h 5mph /  8km/h 61% 0in /  0.0mm
04:59 50.4 °F /  10.2 °C 37.4 °F /  3 °C 29.6in /  1002.1hPa SE 2.4mph /  3.9km/h 5mph /  8km/h 61% 0in /  0.0mm
05:04 50.5 °F /  10.3 °C 37.6 °F /  3.1 °C 29.6in /  1002.1hPa SE 2.9mph /  4.6km/h 5.2mph /  8.4km/h 61.2% 0in /  0.0mm
05:09 50.7 °F /  10.4 °C 37.6 °F /  3.1 °C 29.6in /  1002.1hPa SSE 3.1mph /  5km/h 5mph /  8km/h 60.5% 0in /  0.0mm
05:14 50.7 °F /  10.4 °C 37.9 °F /  3.3 °C 29.6in /  1002.0hPa SSE 2.4mph /  3.9km/h 3mph /  4.8km/h 61.5% 0in /  0.0mm
05:19 50.5 °F /  10.3 °C 37.8 °F /  3.2 °C 29.6in /  1002.0hPa SSE 2mph /  3.2km/h 4.6mph /  7.4km/h 61.4% 0in /  0.0mm
05:24 50.5 °F /  10.3 °C 37.6 °F /  3.1 °C 29.6in /  1002.2hPa SSO 1.9mph /  3km/h 6.9mph /  11.1km/h 61.1% 0in /  0.0mm
05:29 50.5 °F /  10.3 °C 37.4 °F /  3 °C 29.6in /  1002.2hPa SO 1.8mph /  2.9km/h 7mph /  11.3km/h 60.4% 0in /  0.0mm
05:34 50.7 °F /  10.4 °C 37.8 °F /  3.2 °C 29.6in /  1002.2hPa OSO 3.2mph /  5.2km/h 6mph /  9.7km/h 61.1% 0in /  0.0mm
05:39 50.5 °F /  10.3 °C 38.1 °F /  3.4 °C 29.6in /  1002.2hPa Oeste 4mph /  6.5km/h 6mph /  9.7km/h 62.4% 0in /  0.0mm
05:44 50.2 °F /  10.1 °C 38.5 °F /  3.6 °C 29.6in /  1002.2hPa Oeste 3.3mph /  5.3km/h 5mph /  8km/h 64.1% 0in /  0.0mm
05:49 49.6 °F /  9.8 °C 38.7 °F /  3.7 °C 29.6in /  1002.2hPa ONO 2.9mph /  4.7km/h 5.2mph /  8.4km/h 65.6% 0in /  0.0mm
05:54 49.1 °F /  9.5 °C 38.5 °F /  3.6 °C 29.6in /  1002.4hPa NO 2.5mph /  4.1km/h 5mph /  8km/h 66.9% 0in /  0.0mm
05:59 48.6 °F /  9.2 °C 38.7 °F /  3.7 °C 29.6in /  1002.4hPa NO 2.4mph /  3.9km/h 5.9mph /  9.5km/h 68.4% 0in /  0.0mm
06:04 48.6 °F /  9.2 °C 38.7 °F /  3.7 °C 29.6in /  1002.4hPa ESE 2.7mph /  4.4km/h 7.4mph /  11.9km/h 68.8% 0in /  0.0mm
06:09 48.2 °F /  9 °C 38.3 °F /  3.5 °C 29.6in /  1002.6hPa ESE 2.9mph /  4.7km/h 7mph /  11.3km/h 68.4% 0in /  0.0mm
06:14 48 °F /  8.9 °C 38.5 °F /  3.6 °C 29.6in /  1002.6hPa SE 4.4mph /  7.1km/h 7.6mph /  12.2km/h 69.3% 0in /  0.0mm
06:19 48 °F /  8.9 °C 38.7 °F /  3.7 °C 29.6in /  1002.6hPa SE 5.2mph /  8.4km/h 8.5mph /  13.7km/h 70% 0in /  0.0mm
06:24 48 °F /  8.9 °C 38.7 °F /  3.7 °C 29.6in /  1002.7hPa Sur 4.9mph /  7.9km/h 9mph /  14.5km/h 70% 0in /  0.0mm
06:29 48.2 °F /  9 °C 38.8 °F /  3.8 °C 29.6in /  1002.7hPa Sur 4.7mph /  7.6km/h 6mph /  9.7km/h 69.8% 0in /  0.0mm
06:34 48.6 °F /  9.2 °C 38.8 °F /  3.8 °C 29.6in /  1002.7hPa SSE 3.2mph /  5.2km/h 5.2mph /  8.4km/h 69.1% 0in /  0.0mm
06:39 48.7 °F /  9.3 °C 39 °F /  3.9 °C 29.6in /  1002.7hPa SSE 2.4mph /  3.9km/h 5.9mph /  9.5km/h 69% 0in /  0.0mm
06:44 48.9 °F /  9.4 °C 38.8 °F /  3.8 °C 29.6in /  1002.6hPa SSE 2.9mph /  4.6km/h 6mph /  9.7km/h 68.3% 0in /  0.0mm
06:49 48.9 °F /  9.4 °C 38.8 °F /  3.8 °C 29.6in /  1002.6hPa SSE 3.1mph /  5km/h 6mph /  9.7km/h 68% 0in /  0.0mm
06:54 48.9 °F /  9.4 °C 39 °F /  3.9 °C 29.6in /  1002.8hPa Sur 2.4mph /  3.9km/h 4.6mph /  7.4km/h 68.6% 0in /  0.0mm
06:59 48.7 °F /  9.3 °C 39.2 °F /  4 °C 29.6in /  1002.8hPa NO 2mph /  3.2km/h 5mph /  8km/h 69.5% 0in /  0.0mm
07:04 48.7 °F /  9.3 °C 38.8 °F /  3.8 °C 29.6in /  1002.8hPa ONO 1.9mph /  3km/h 5.9mph /  9.5km/h 68.7% 0in /  0.0mm
07:09 48.9 °F /  9.4 °C 38.5 °F /  3.6 °C 29.6in /  1002.8hPa SSE 1.8mph /  2.9km/h 6.2mph /  10km/h 67.5% 0in /  0.0mm
07:14 49.3 °F /  9.6 °C 38.5 °F /  3.6 °C 29.6in /  1002.8hPa SSE 2.6mph /  4.2km/h 6mph /  9.7km/h 66.1% 0in /  0.0mm
07:19 49.5 °F /  9.7 °C 38.7 °F /  3.7 °C 29.6in /  1002.8hPa SSE 3.1mph /  5km/h 3mph /  4.8km/h 66% 0in /  0.0mm
07:24 49.6 °F /  9.8 °C 39 °F /  3.9 °C 29.6in /  1002.8hPa SSE 2mph /  3.2km/h 3mph /  4.8km/h 66.9% 0in /  0.0mm
07:29 49.6 °F /  9.8 °C 39 °F /  3.9 °C 29.6in /  1002.8hPa SSE 1.4mph /  2.2km/h 3.5mph /  5.6km/h 67% 0in /  0.0mm
07:34 49.5 °F /  9.7 °C 38.7 °F /  3.7 °C 29.6in /  1002.8hPa SSE 1.7mph /  2.7km/h 4.7mph /  7.6km/h 66.3% 0in /  0.0mm
07:39 49.5 °F /  9.7 °C 38.7 °F /  3.7 °C 29.6in /  1003.2hPa SSE 1.8mph /  2.9km/h 5mph /  8km/h 66.1% 0in /  0.0mm
07:44 49.6 °F /  9.8 °C 39 °F /  3.9 °C 29.6in /  1003.2hPa SSE 1.9mph /  3.1km/h 3mph /  4.8km/h 67% 0in /  0.0mm
07:49 49.5 °F /  9.7 °C 38.7 °F /  3.7 °C 29.6in /  1003.2hPa SSE 2mph /  3.2km/h 3.6mph /  5.8km/h 66.1% 0in /  0.0mm
07:54 49.5 °F /  9.7 °C 38.5 °F /  3.6 °C 29.6in /  1003.2hPa SSE 1.9mph /  3km/h 5.2mph /  8.4km/h 65.7% 0in /  0.0mm
07:59 49.5 °F /  9.7 °C 38.5 °F /  3.6 °C 29.6in /  1003.2hPa SSO 1.8mph /  2.9km/h 5mph /  8km/h 65.7% 0in /  0.0mm
08:04 49.6 °F /  9.8 °C 38.8 °F /  3.8 °C 29.6in /  1003.2hPa OSO 2.2mph /  3.6km/h 5mph /  8km/h 66.3% 0in /  0.0mm
08:09 49.5 °F /  9.7 °C 39 °F /  3.9 °C 29.6in /  1003.3hPa Oeste 2.4mph /  3.9km/h 5mph /  8km/h 67.5% 0in /  0.0mm
08:14 48.9 °F /  9.4 °C 39 °F /  3.9 °C 29.6in /  1003.3hPa Oeste 2.4mph /  3.9km/h 5mph /  8km/h 68.7% 0in /  0.0mm
08:19 48.6 °F /  9.2 °C 39.2 °F /  4 °C 29.6in /  1003.3hPa ONO 2.4mph /  3.9km/h 5mph /  8km/h 69.8% 0in /  0.0mm
08:24 48.6 °F /  9.2 °C 39.4 °F /  4.1 °C 29.6in /  1003.7hPa ONO 2.4mph /  3.9km/h 4.6mph /  7.4km/h 70.5% 0in /  0.0mm
08:29 48.4 °F /  9.1 °C 39.4 °F /  4.1 °C 29.6in /  1003.7hPa ONO 2.4mph /  3.9km/h 5mph /  8km/h 71% 0in /  0.0mm
08:34 48.6 °F /  9.2 °C 39.6 °F /  4.2 °C 29.6in /  1003.7hPa Oeste 2.4mph /  3.9km/h 5mph /  8km/h 71% 0in /  0.0mm
08:39 48.7 °F /  9.3 °C 39.4 °F /  4.1 °C 29.6in /  1003.8hPa Oeste 2.4mph /  3.9km/h 5mph /  8km/h 70.2% 0in /  0.0mm
08:44 49.1 °F /  9.5 °C 40.1 °F /  4.5 °C 29.6in /  1003.8hPa Oeste 0.9mph /  1.4km/h   71% 0in /  0.0mm
08:49 50 °F /  10 °C 40.6 °F /  4.8 °C 29.6in /  1003.8hPa Calm   1.8mph /  2.9km/h 70.4% 0in /  0.0mm
08:54 50.5 °F /  10.3 °C 40.5 °F /  4.7 °C 29.7in /  1004.1hPa Calm   4.7mph /  7.6km/h 68.2% 0in /  0.0mm
08:59 51.1 °F /  10.6 °C 40.5 °F /  4.7 °C 29.7in /  1004.1hPa Calm   5mph /  8km/h 67% 0in /  0.0mm
09:04 51.3 °F /  10.7 °C 40.6 °F /  4.8 °C 29.7in /  1004.1hPa SSE 0.9mph /  1.5km/h 3.6mph /  5.8km/h 66.8% 0in /  0.0mm
09:09 51.4 °F /  10.8 °C 40.5 °F /  4.7 °C 29.7in /  1004.1hPa SO 1.4mph /  2.2km/h 4.6mph /  7.4km/h 66.1% 0in /  0.0mm
09:14 51.6 °F /  10.9 °C 40.6 °F /  4.8 °C 29.7in /  1004.1hPa SO 1.8mph /  2.9km/h 5mph /  8km/h 66% 0in /  0.0mm
09:19 51.6 °F /  10.9 °C 40.3 °F /  4.6 °C 29.7in /  1004.1hPa OSO 2mph /  3.2km/h 4.6mph /  7.4km/h 65.2% 0in /  0.0mm
09:24 52 °F /  11.1 °C 40.6 °F /  4.8 °C 29.7in /  1004.2hPa OSO 2mph /  3.2km/h 5mph /  8km/h 65.1% 0in /  0.0mm
09:29 52.2 °F /  11.2 °C 39.4 °F /  4.1 °C 29.7in /  1004.2hPa Oeste 2mph /  3.2km/h 4.7mph /  7.6km/h 62% 0in /  0.0mm
09:34 52.3 °F /  11.3 °C 39 °F /  3.9 °C 29.7in /  1004.2hPa ONO 2mph /  3.2km/h 5mph /  8km/h 60.3% 0in /  0.0mm
09:39 52.5 °F /  11.4 °C 38.7 °F /  3.7 °C 29.7in /  1004.4hPa Oeste 2mph /  3.2km/h 5mph /  8km/h 59% 0in /  0.0mm
09:44 52.9 °F /  11.6 °C 38.3 °F /  3.5 °C 29.7in /  1004.4hPa SO 2mph /  3.2km/h 5mph /  8km/h 57.8% 0in /  0.0mm
09:49 53.1 °F /  11.7 °C 38.1 °F /  3.4 °C 29.7in /  1004.4hPa SO 2mph /  3.2km/h 4.6mph /  7.4km/h 57% 0in /  0.0mm
09:54 53.2 °F /  11.8 °C 38.1 °F /  3.4 °C 29.7in /  1004.4hPa OSO 2.2mph /  3.6km/h 6.2mph /  10km/h 56.5% 0in /  0.0mm
09:59 53.4 °F /  11.9 °C 38.1 °F /  3.4 °C 29.7in /  1004.4hPa Oeste 2.4mph /  3.9km/h 6mph /  9.7km/h 55.9% 0in /  0.0mm
10:04 53.6 °F /  12 °C 38.3 °F /  3.5 °C 29.7in /  1004.4hPa SO 3.2mph /  5.1km/h 6.9mph /  11.1km/h 56% 0in /  0.0mm
10:09 53.6 °F /  12 °C 38.3 °F /  3.5 °C 29.7in /  1004.6hPa OSO 3.6mph /  5.8km/h 7mph /  11.3km/h 55.9% 0in /  0.0mm
10:14 53.8 °F /  12.1 °C 38.3 °F /  3.5 °C 29.7in /  1004.6hPa OSO 3.2mph /  5.1km/h 5.2mph /  8.4km/h 56% 0in /  0.0mm
10:19 53.8 °F /  12.1 °C 38.3 °F /  3.5 °C 29.7in /  1004.6hPa OSO 2.9mph /  4.7km/h 5.9mph /  9.5km/h 55.9% 0in /  0.0mm
10:24 53.8 °F /  12.1 °C 37.8 °F /  3.2 °C 29.7in /  1004.7hPa OSO 2.9mph /  4.7km/h 8.1mph /  13km/h 54.6% 0in /  0.0mm
10:29 54 °F /  12.2 °C 37.6 °F /  3.1 °C 29.7in /  1004.7hPa OSO 2.9mph /  4.7km/h 8.1mph /  13km/h 54% 0in /  0.0mm
10:34 54.1 °F /  12.3 °C 37.8 °F /  3.2 °C 29.7in /  1004.7hPa OSO 4mph /  6.5km/h 8mph /  12.9km/h 54% 0in /  0.0mm
10:39 54.3 °F /  12.4 °C 37.8 °F /  3.2 °C 29.7in /  1004.7hPa OSO 4.7mph /  7.6km/h 9.7mph /  15.6km/h 53.4% 0in /  0.0mm
10:44 54.3 °F /  12.4 °C 37.4 °F /  3 °C 29.7in /  1004.7hPa Oeste 5mph /  8.1km/h 10mph /  16.1km/h 52.8% 0in /  0.0mm
10:49 54.5 °F /  12.5 °C 38.1 °F /  3.4 °C 29.7in /  1004.7hPa OSO 5.2mph /  8.4km/h 9mph /  14.5km/h 53.8% 0in /  0.0mm
10:54 54.9 °F /  12.7 °C 38.1 °F /  3.4 °C 29.7in /  1004.7hPa OSO 4.9mph /  7.9km/h 8.1mph /  13km/h 53.2% 0in /  0.0mm
10:59 54.9 °F /  12.7 °C 37.9 °F /  3.3 °C 29.7in /  1004.7hPa Oeste 4.7mph /  7.6km/h 11.8mph /  19km/h 52.8% 0in /  0.0mm
11:04 55 °F /  12.8 °C 37.8 °F /  3.2 °C 29.7in /  1004.7hPa Oeste 5mph /  8.1km/h 12mph /  19.3km/h 51.9% 0in /  0.0mm
11:09 55 °F /  12.8 °C 37.4 °F /  3 °C 29.7in /  1004.7hPa ONO 5.2mph /  8.4km/h 12mph /  19.3km/h 51.4% 0in /  0.0mm
11:14 55.4 °F /  13 °C 37.8 °F /  3.2 °C 29.7in /  1004.7hPa NO 5.8mph /  9.4km/h 12mph /  19.3km/h 51.3% 0in /  0.0mm
11:19 55.2 °F /  12.9 °C 38.1 °F /  3.4 °C 29.7in /  1004.7hPa NO 6.2mph /  10km/h 12mph /  19.3km/h 52.6% 0in /  0.0mm
11:24 55.2 °F /  12.9 °C 37.8 °F /  3.2 °C 29.7in /  1004.8hPa ONO 6.3mph /  10.2km/h 12mph /  19.3km/h 51.9% 0in /  0.0mm
11:29 55.6 °F /  13.1 °C 38.3 °F /  3.5 °C 29.7in /  1004.8hPa NO 6.4mph /  10.3km/h 10.7mph /  17.2km/h 52% 0in /  0.0mm
11:34 55.9 °F /  13.3 °C 38.1 °F /  3.4 °C 29.7in /  1004.8hPa ONO 6.1mph /  9.8km/h 11mph /  17.7km/h 51.2% 0in /  0.0mm
11:39 56.1 °F /  13.4 °C 37.2 °F /  2.9 °C 29.7in /  1004.8hPa Oeste 5.9mph /  9.5km/h 18.4mph /  29.6km/h 49.3% 0in /  0.0mm
11:44 56.1 °F /  13.4 °C 37 °F /  2.8 °C 29.7in /  1004.8hPa Oeste 7.6mph /  12.2km/h 18.4mph /  29.6km/h 48.9% 0in /  0.0mm
11:49 56.1 °F /  13.4 °C 36.9 °F /  2.7 °C 29.7in /  1004.8hPa Oeste 8.5mph /  13.7km/h 18.5mph /  29.8km/h 48.4% 0in /  0.0mm
11:54 56.1 °F /  13.4 °C 36.7 °F /  2.6 °C 29.7in /  1004.8hPa OSO 8.5mph /  13.7km/h 19mph /  30.6km/h 47.9% 0in /  0.0mm
11:59 56.5 °F /  13.6 °C 36.5 °F /  2.5 °C 29.7in /  1004.6hPa Oeste 8.5mph /  13.7km/h 15.2mph /  24.5km/h 47% 0in /  0.0mm
12:04 56.7 °F /  13.7 °C 36 °F /  2.2 °C 29.7in /  1004.6hPa OSO 9.3mph /  14.9km/h 19.7mph /  31.7km/h 45.9% 0in /  0.0mm
12:09 56.7 °F /  13.7 °C 36 °F /  2.2 °C 29.7in /  1004.6hPa Oeste 9.7mph /  15.6km/h 20mph /  32.2km/h 45.9% 0in /  0.0mm
12:14 56.8 °F /  13.8 °C 36 °F /  2.2 °C 29.7in /  1004.5hPa Oeste 9.1mph /  14.6km/h 16.1mph /  25.9km/h 45.4% 0in /  0.0mm
12:19 57.2 °F /  14 °C 35.4 °F /  1.9 °C 29.7in /  1004.5hPa OSO 8.7mph /  14km/h 16.1mph /  25.9km/h 44% 0in /  0.0mm
12:24 57.2 °F /  14 °C 35.4 °F /  1.9 °C 29.7in /  1004.5hPa OSO 8.7mph /  14km/h 18.5mph /  29.8km/h 43.8% 0in /  0.0mm
12:29 56.7 °F /  13.7 °C 35.2 °F /  1.8 °C 29.7in /  1004.3hPa Oeste 8.7mph /  14km/h 19mph /  30.6km/h 44.4% 0in /  0.0mm
12:34 56.5 °F /  13.6 °C 35.4 °F /  1.9 °C 29.7in /  1004.3hPa OSO 8.7mph /  14km/h 17.3mph /  27.8km/h 45% 0in /  0.0mm
12:39 56.7 °F /  13.7 °C 35.4 °F /  1.9 °C 29.7in /  1004.3hPa Oeste 8.7mph /  14km/h 17mph /  27.4km/h 44.9% 0in /  0.0mm
12:44 56.7 °F /  13.7 °C 35.4 °F /  1.9 °C 29.7in /  1004.2hPa Oeste 9.4mph /  15.1km/h 17.3mph /  27.8km/h 44.9% 0in /  0.0mm
12:49 56.7 °F /  13.7 °C 35.1 °F /  1.7 °C 29.7in /  1004.2hPa Oeste 9.7mph /  15.6km/h 17.3mph /  27.8km/h 44.2% 0in /  0.0mm
12:54 56.7 °F /  13.7 °C 34.5 °F /  1.4 °C 29.7in /  1004.2hPa OSO 9.4mph /  15.1km/h 17.3mph /  27.8km/h 43.5% 0in /  0.0mm
12:59 56.7 °F /  13.7 °C 34.7 °F /  1.5 °C 29.7in /  1004.0hPa Oeste 9.2mph /  14.8km/h 18.4mph /  29.6km/h 43.5% 0in /  0.0mm
13:04 57 °F /  13.9 °C 34 °F /  1.1 °C 29.7in /  1004.0hPa Oeste 9.6mph /  15.4km/h 18mph /  29km/h 41.7% 0in /  0.0mm
13:09 57.2 °F /  14 °C 34.5 °F /  1.4 °C 29.7in /  1004.0hPa OSO 9.7mph /  15.6km/h 17mph /  27.4km/h 42.2% 0in /  0.0mm
13:14 57.7 °F /  14.3 °C 34.2 °F /  1.2 °C 29.6in /  1003.6hPa Oeste 9.7mph /  15.6km/h 21.9mph /  35.2km/h 41% 0in /  0.0mm
13:19 57.7 °F /  14.3 °C 33.1 °F /  0.6 °C 29.6in /  1003.6hPa ONO 9.7mph /  15.6km/h 22mph /  35.4km/h 39.1% 0in /  0.0mm
13:24 57.7 °F /  14.3 °C 32.9 °F /  0.5 °C 29.6in /  1003.6hPa Oeste 10.8mph /  17.4km/h 23.5mph /  37.8km/h 39% 0in /  0.0mm
13:29 57.7 °F /  14.3 °C 32.4 °F /  0.2 °C 29.6in /  1003.3hPa Oeste 11.4mph /  18.4km/h 23mph /  37km/h 38.2% 0in /  0.0mm
13:34 57.7 °F /  14.3 °C 33.1 °F /  0.6 °C 29.6in /  1003.3hPa Oeste 12.4mph /  20km/h 23.5mph /  37.8km/h 39% 0in /  0.0mm
13:39 58.1 °F /  14.5 °C 32.9 °F /  0.5 °C 29.6in /  1003.3hPa Oeste 13mph /  20.9km/h 23mph /  37km/h 38.5% 0in /  0.0mm
13:44 58.1 °F /  14.5 °C 31.8 °F /  -0.1 °C 29.6in /  1003.3hPa OSO 12.2mph /  19.7km/h 22mph /  35.4km/h 36.8% 0in /  0.0mm
13:49 58.3 °F /  14.6 °C 31.8 °F /  -0.1 °C 29.6in /  1003.3hPa Oeste 11.8mph /  19km/h 22mph /  35.4km/h 36.6% 0in /  0.0mm
13:54 58.3 °F /  14.6 °C 32 °F /  0 °C 29.6in /  1003.3hPa Oeste 10.7mph /  17.3km/h 17.3mph /  27.8km/h 36.9% 0in /  0.0mm
13:59 58.5 °F /  14.7 °C 32.2 °F /  0.1 °C 29.6in /  1003.2hPa Oeste 10.2mph /  16.4km/h 17.5mph /  28.2km/h 37% 0in /  0.0mm
14:04 58.3 °F /  14.6 °C 32.2 °F /  0.1 °C 29.6in /  1003.2hPa Oeste 9.5mph /  15.3km/h 19mph /  30.6km/h 37% 0in /  0.0mm
14:09 58.5 °F /  14.7 °C 32.2 °F /  0.1 °C 29.6in /  1003.3hPa OSO 9.2mph /  14.8km/h 19mph /  30.6km/h 37% 0in /  0.0mm
14:14 58.5 °F /  14.7 °C 32 °F /  0 °C 29.6in /  1003.3hPa Oeste 9.7mph /  15.6km/h 17.3mph /  27.8km/h 36.8% 0in /  0.0mm
14:19 58.5 °F /  14.7 °C 32.4 °F /  0.2 °C 29.6in /  1003.3hPa Oeste 10mph /  16.1km/h 17mph /  27.4km/h 37% 0in /  0.0mm
14:24 58.6 °F /  14.8 °C 32.2 °F /  0.1 °C 29.6in /  1003.3hPa OSO 8.3mph /  13.4km/h 18.5mph /  29.8km/h 36.6% 0in /  0.0mm
14:29 58.6 °F /  14.8 °C 31.6 °F /  -0.2 °C 29.6in /  1003.2hPa OSO 7.4mph /  11.9km/h 20.7mph /  33.3km/h 36% 0in /  0.0mm
14:34 58.5 °F /  14.7 °C 32.2 °F /  0.1 °C 29.6in /  1003.2hPa Oeste 9.1mph /  14.6km/h 21mph /  33.8km/h 36.8% 0in /  0.0mm
14:39 58.5 °F /  14.7 °C 32.4 °F /  0.2 °C 29.6in /  1003.2hPa ONO 10mph /  16.1km/h 19mph /  30.6km/h 37% 0in /  0.0mm
14:44 58.5 °F /  14.7 °C 32.5 °F /  0.3 °C 29.6in /  1003.2hPa Oeste 10.1mph /  16.3km/h 19mph /  30.6km/h 37.4% 0in /  0.0mm
14:49 58.5 °F /  14.7 °C 32.4 °F /  0.2 °C 29.6in /  1003.2hPa OSO 10.2mph /  16.4km/h 18.4mph /  29.6km/h 37.3% 0in /  0.0mm
14:54 58.5 °F /  14.7 °C 31.8 °F /  -0.1 °C 29.6in /  1003.2hPa OSO 9.9mph /  15.9km/h 18mph /  29km/h 36.4% 0in /  0.0mm
14:59 58.6 °F /  14.8 °C 32 °F /  0 °C 29.6in /  1003.0hPa OSO 9.7mph /  15.6km/h 17.8mph /  28.6km/h 36.2% 0in /  0.0mm
15:04 58.8 °F /  14.9 °C 31.8 °F /  -0.1 °C 29.6in /  1003.0hPa Oeste 9.3mph /  15km/h 18.4mph /  29.6km/h 35.9% 0in /  0.0mm
15:09 58.6 °F /  14.8 °C 31.1 °F /  -0.5 °C 29.6in /  1003.1hPa Oeste 9.2mph /  14.8km/h 18.4mph /  29.6km/h 35% 0in /  0.0mm
15:14 58.5 °F /  14.7 °C 31.3 °F /  -0.4 °C 29.6in /  1003.1hPa Oeste 8.8mph /  14.1km/h 18mph /  29km/h 35.4% 0in /  0.0mm
15:19 58.6 °F /  14.8 °C 31.5 °F /  -0.3 °C 29.6in /  1003.1hPa Oeste 8.5mph /  13.7km/h 17.5mph /  28.2km/h 35.6% 0in /  0.0mm
15:24 58.6 °F /  14.8 °C 30.9 °F /  -0.6 °C 29.6in /  1003.1hPa Oeste 8.6mph /  13.9km/h 17mph /  27.4km/h 35% 0in /  0.0mm
15:29 58.6 °F /  14.8 °C 30.9 °F /  -0.6 °C 29.6in /  1003.0hPa Oeste 8.7mph /  14km/h 16.3mph /  26.2km/h 34.9% 0in /  0.0mm
15:34 58.6 °F /  14.8 °C 30.4 °F /  -0.9 °C 29.6in /  1003.0hPa OSO 8.7mph /  14km/h 16.8mph /  27km/h 34.1% 0in /  0.0mm
15:39 58.6 °F /  14.8 °C 30.4 °F /  -0.9 °C 29.6in /  1003.0hPa OSO 8.7mph /  14km/h 17.3mph /  27.8km/h 34% 0in /  0.0mm
15:44 58.6 °F /  14.8 °C 30.4 °F /  -0.9 °C 29.6in /  1003.0hPa Oeste 9.3mph /  15km/h 17.3mph /  27.8km/h 34% 0in /  0.0mm
15:49 58.6 °F /  14.8 °C 31.3 °F /  -0.4 °C 29.6in /  1003.0hPa Oeste 9.7mph /  15.6km/h 17mph /  27.4km/h 35.3% 0in /  0.0mm
15:54 58.6 °F /  14.8 °C 31.8 °F /  -0.1 °C 29.6in /  1003.1hPa Oeste 8.6mph /  13.9km/h 14mph /  22.5km/h 36% 0in /  0.0mm
15:59 58.6 °F /  14.8 °C 31.5 °F /  -0.3 °C 29.6in /  1003.1hPa Oeste 8.1mph /  13km/h 13mph /  20.9km/h 35.7% 0in /  0.0mm
16:04 58.6 °F /  14.8 °C 31.8 °F /  -0.1 °C 29.6in /  1003.1hPa ONO 7mph /  11.2km/h 13.8mph /  22.2km/h 36.1% 0in /  0.0mm
16:09 58.5 °F /  14.7 °C 32 °F /  0 °C 29.6in /  1003.1hPa ONO 6.4mph /  10.3km/h 20.7mph /  33.3km/h 36.7% 0in /  0.0mm
16:14 58.1 °F /  14.5 °C 32 °F /  0 °C 29.6in /  1003.1hPa ONO 8.8mph /  14.1km/h 21mph /  33.8km/h 37.2% 0in /  0.0mm
16:19 58.1 °F /  14.5 °C 32.5 °F /  0.3 °C 29.6in /  1003.1hPa ONO 10mph /  16.1km/h 19.2mph /  30.9km/h 38% 0in /  0.0mm
16:24 57.9 °F /  14.4 °C 31.8 °F /  -0.1 °C 29.6in /  1003.3hPa ONO 9.8mph /  15.8km/h 20mph /  32.2km/h 37.1% 0in /  0.0mm
16:29 57.7 °F /  14.3 °C 32.4 °F /  0.2 °C 29.6in /  1003.3hPa ONO 9.7mph /  15.6km/h 17mph /  27.4km/h 38% 0in /  0.0mm
16:34 57.7 °F /  14.3 °C 32.4 °F /  0.2 °C 29.6in /  1003.3hPa ONO 9.9mph /  15.9km/h 16.3mph /  26.2km/h 38% 0in /  0.0mm
16:39 57.6 °F /  14.2 °C 32.2 °F /  0.1 °C 29.6in /  1003.5hPa ONO 10mph /  16.1km/h 17.3mph /  27.8km/h 38% 0in /  0.0mm
16:44 57.6 °F /  14.2 °C 32 °F /  0 °C 29.6in /  1003.5hPa ONO 10.4mph /  16.8km/h 17.3mph /  27.8km/h 38% 0in /  0.0mm
16:49 57.4 °F /  14.1 °C 32.4 °F /  0.2 °C 29.6in /  1003.5hPa ONO 10.7mph /  17.2km/h 17mph /  27.4km/h 38.7% 0in /  0.0mm
16:54 57.4 °F /  14.1 °C 32.5 °F /  0.3 °C 29.6in /  1003.5hPa NO 10.4mph /  16.7km/h 16.3mph /  26.2km/h 39% 0in /  0.0mm
16:59 57 °F /  13.9 °C 32.4 °F /  0.2 °C 29.6in /  1003.4hPa ONO 10.2mph /  16.4km/h 18.5mph /  29.8km/h 39% 0in /  0.0mm
17:04 56.8 °F /  13.8 °C 32.2 °F /  0.1 °C 29.6in /  1003.4hPa ONO 10.6mph /  17km/h 20.8mph /  33.5km/h 39% 0in /  0.0mm
17:09 56.8 °F /  13.8 °C 32 °F /  0 °C 29.6in /  1003.5hPa ONO 10.7mph /  17.2km/h 21mph /  33.8km/h 39% 0in /  0.0mm
17:14 56.7 °F /  13.7 °C 32 °F /  0 °C 29.6in /  1003.5hPa ONO 9mph /  14.5km/h 13.8mph /  22.2km/h 39% 0in /  0.0mm
17:19 56.7 °F /  13.7 °C 32 °F /  0 °C 29.6in /  1003.5hPa ONO 8.1mph /  13km/h 16.3mph /  26.2km/h 39% 0in /  0.0mm
17:24 56.5 °F /  13.6 °C 31.8 °F /  -0.1 °C 29.6in /  1003.8hPa ONO 8.8mph /  14.2km/h 16mph /  25.7km/h 39% 0in /  0.0mm
17:29 56.3 °F /  13.5 °C 32 °F /  0 °C 29.6in /  1003.8hPa ONO 9.2mph /  14.8km/h 15mph /  24.1km/h 39.5% 0in /  0.0mm
17:34 56.1 °F /  13.4 °C 32.4 °F /  0.2 °C 29.6in /  1003.8hPa ONO 8.5mph /  13.7km/h 15mph /  24.1km/h 40.3% 0in /  0.0mm
17:39 56.1 °F /  13.4 °C 32.7 °F /  0.4 °C 29.6in /  1003.9hPa ONO 8.1mph /  13km/h 15.9mph /  25.6km/h 41% 0in /  0.0mm
17:44 55.9 °F /  13.3 °C 32.5 °F /  0.3 °C 29.6in /  1003.9hPa Oeste 7mph /  11.2km/h 16.3mph /  26.2km/h 41% 0in /  0.0mm
17:49 55.8 °F /  13.2 °C 32.4 °F /  0.2 °C 29.6in /  1003.9hPa ONO 6.4mph /  10.3km/h 16mph /  25.7km/h 41% 0in /  0.0mm
17:54 55.6 °F /  13.1 °C 32.2 °F /  0.1 °C 29.6in /  1003.9hPa ONO 6.4mph /  10.3km/h 15mph /  24.1km/h 41% 0in /  0.0mm
17:59 55.2 °F /  12.9 °C 32.4 °F /  0.2 °C 29.6in /  1003.9hPa ONO 6.4mph /  10.3km/h 15mph /  24.1km/h 41.5% 0in /  0.0mm
18:04 55 °F /  12.8 °C 32.4 °F /  0.2 °C 29.6in /  1003.9hPa Oeste 6.3mph /  10.1km/h 14mph /  22.5km/h 42% 0in /  0.0mm
18:09 55 °F /  12.8 °C 32.2 °F /  0.1 °C 29.7in /  1004.1hPa ONO 6.2mph /  10km/h 14mph /  22.5km/h 42% 0in /  0.0mm
18:14 54.9 °F /  12.7 °C 32.5 °F /  0.3 °C 29.7in /  1004.1hPa Oeste 5.5mph /  8.9km/h 10mph /  16.1km/h 42.6% 0in /  0.0mm
18:19 54.7 °F /  12.6 °C 32.5 °F /  0.3 °C 29.7in /  1004.1hPa Oeste 5.2mph /  8.4km/h 8.1mph /  13km/h 43% 0in /  0.0mm
18:24 54.5 °F /  12.5 °C 32.4 °F /  0.2 °C 29.7in /  1004.2hPa Oeste 4.2mph /  6.7km/h 8.1mph /  13km/h 43% 0in /  0.0mm
18:29 54.3 °F /  12.4 °C 32.4 °F /  0.2 °C 29.7in /  1004.2hPa Oeste 3.6mph /  5.8km/h 8.1mph /  13km/h 43% 0in /  0.0mm
18:34 54.1 °F /  12.3 °C 32.7 °F /  0.4 °C 29.7in /  1004.2hPa Oeste 4.3mph /  6.9km/h 9.2mph /  14.8km/h 43.8% 0in /  0.0mm
18:39 54.1 °F /  12.3 °C 32.7 °F /  0.4 °C 29.7in /  1004.4hPa Oeste 4.7mph /  7.6km/h 9mph /  14.5km/h 44% 0in /  0.0mm
18:44 54 °F /  12.2 °C 32.5 °F /  0.3 °C 29.7in /  1004.4hPa Oeste 4.4mph /  7.1km/h 9.2mph /  14.8km/h 44% 0in /  0.0mm
18:49 54 °F /  12.2 °C 32.5 °F /  0.3 °C 29.7in /  1004.4hPa Oeste 4.3mph /  6.9km/h 9mph /  14.5km/h 44% 0in /  0.0mm
18:54 53.8 °F /  12.1 °C 32.5 °F /  0.3 °C 29.7in /  1004.5hPa OSO 4.6mph /  7.4km/h 9mph /  14.5km/h 44.3% 0in /  0.0mm
18:59 53.6 °F /  12 °C 32.9 °F /  0.5 °C 29.7in /  1004.5hPa Oeste 4.7mph /  7.6km/h 8mph /  12.9km/h 45% 0in /  0.0mm
19:04 53.4 °F /  11.9 °C 32.5 °F /  0.3 °C 29.7in /  1004.5hPa OSO 4.2mph /  6.8km/h 7.4mph /  11.9km/h 45% 0in /  0.0mm
19:09 53.4 °F /  11.9 °C 32.5 °F /  0.3 °C 29.7in /  1004.5hPa Oeste 4mph /  6.5km/h 8.1mph /  13km/h 45% 0in /  0.0mm
19:14 53.4 °F /  11.9 °C 32.5 °F /  0.3 °C 29.7in /  1004.5hPa OSO 4.2mph /  6.8km/h 8.1mph /  13km/h 45% 0in /  0.0mm
19:19 53.2 °F /  11.8 °C 32.5 °F /  0.3 °C 29.7in /  1004.5hPa OSO 4.3mph /  6.9km/h 8.5mph /  13.7km/h 45% 0in /  0.0mm
19:24 53.2 °F /  11.8 °C 32.5 °F /  0.3 °C 29.7in /  1004.8hPa OSO 3.9mph /  6.2km/h 9mph /  14.5km/h 45.3% 0in /  0.0mm
19:29 53.2 °F /  11.8 °C 32.9 °F /  0.5 °C 29.7in /  1004.8hPa OSO 3.6mph /  5.8km/h 8mph /  12.9km/h 45.9% 0in /  0.0mm
19:34 53.2 °F /  11.8 °C 33.1 °F /  0.6 °C 29.7in /  1004.8hPa OSO 3.2mph /  5.1km/h 5.8mph /  9.3km/h 46% 0in /  0.0mm
19:39 53.1 °F /  11.7 °C 32.9 °F /  0.5 °C 29.7in /  1004.9hPa OSO 2.9mph /  4.7km/h 6mph /  9.7km/h 46% 0in /  0.0mm
19:44 53.1 °F /  11.7 °C 32.7 °F /  0.4 °C 29.7in /  1004.9hPa Oeste 3mph /  4.9km/h 6mph /  9.7km/h 46% 0in /  0.0mm
19:49 52.9 °F /  11.6 °C 32.7 °F /  0.4 °C 29.7in /  1004.9hPa Oeste 3.1mph /  5km/h 9.2mph /  14.8km/h 46% 0in /  0.0mm
19:54 52.9 °F /  11.6 °C 32.9 °F /  0.5 °C 29.7in /  1005.0hPa SO 3.9mph /  6.2km/h 9mph /  14.5km/h 46.6% 0in /  0.0mm
19:59 52.7 °F /  11.5 °C 32.9 °F /  0.5 °C 29.7in /  1005.0hPa OSO 4.3mph /  6.9km/h 6mph /  9.7km/h 47% 0in /  0.0mm
20:04 52.5 °F /  11.4 °C 32.9 °F /  0.5 °C 29.7in /  1005.0hPa OSO 3mph /  4.8km/h 5.9mph /  9.5km/h 47% 0in /  0.0mm
20:09 52.5 °F /  11.4 °C 32.9 °F /  0.5 °C 29.7in /  1005.1hPa OSO 2.4mph /  3.9km/h 6mph /  9.7km/h 47% 0in /  0.0mm
20:14 52.5 °F /  11.4 °C 32.9 °F /  0.5 °C 29.7in /  1005.1hPa SO 2.7mph /  4.4km/h 6.4mph /  10.3km/h 47% 0in /  0.0mm
20:19 52.5 °F /  11.4 °C 32.9 °F /  0.5 °C 29.7in /  1005.1hPa SO 2.9mph /  4.7km/h 8.5mph /  13.7km/h 47% 0in /  0.0mm
20:24 52.7 °F /  11.5 °C 32.9 °F /  0.5 °C 29.7in /  1005.3hPa OSO 4mph /  6.5km/h 9mph /  14.5km/h 46.6% 0in /  0.0mm
20:29 52.9 °F /  11.6 °C 32.7 °F /  0.4 °C 29.7in /  1005.3hPa OSO 4.7mph /  7.6km/h 9.2mph /  14.8km/h 46.2% 0in /  0.0mm
20:34 52.7 °F /  11.5 °C 33.1 °F /  0.6 °C 29.7in /  1005.3hPa SSO 4.5mph /  7.2km/h 9mph /  14.5km/h 47% 0in /  0.0mm
20:39 52.7 °F /  11.5 °C 32.9 °F /  0.5 °C 29.7in /  1005.3hPa SSO 4.3mph /  6.9km/h 6.2mph /  10km/h 47% 0in /  0.0mm
20:44 52.5 °F /  11.4 °C 32.9 °F /  0.5 °C 29.7in /  1005.2hPa SO 3.4mph /  5.5km/h 6mph /  9.7km/h 47% 0in /  0.0mm
20:49 52.5 °F /  11.4 °C 32.9 °F /  0.5 °C 29.7in /  1005.2hPa OSO 2.9mph /  4.7km/h 7.4mph /  11.9km/h 47% 0in /  0.0mm
20:54 52.3 °F /  11.3 °C 32.9 °F /  0.5 °C 29.7in /  1005.2hPa OSO 3.4mph /  5.4km/h 7mph /  11.3km/h 47% 0in /  0.0mm
20:59 52.3 °F /  11.3 °C 32.9 °F /  0.5 °C 29.7in /  1005.1hPa OSO 3.6mph /  5.8km/h 9.2mph /  14.8km/h 47.6% 0in /  0.0mm
21:04 52.2 °F /  11.2 °C 33.3 °F /  0.7 °C 29.7in /  1005.1hPa SSE 3.2mph /  5.2km/h 9mph /  14.5km/h 48.4% 0in /  0.0mm
21:09 51.8 °F /  11 °C 33.8 °F /  1 °C 29.7in /  1005.5hPa SE 3.1mph /  5km/h 6.2mph /  10km/h 50.1% 0in /  0.0mm
21:14 51.1 °F /  10.6 °C 33.8 °F /  1 °C 29.7in /  1005.5hPa SE 3.4mph /  5.5km/h 6.2mph /  10km/h 51.5% 0in /  0.0mm
21:19 50.5 °F /  10.3 °C 33.6 °F /  0.9 °C 29.7in /  1005.5hPa SSE 3.6mph /  5.8km/h 7.4mph /  11.9km/h 52% 0in /  0.0mm
21:24 50.4 °F /  10.2 °C 33.4 °F /  0.8 °C 29.7in /  1005.6hPa Sur 4.3mph /  6.9km/h 7mph /  11.3km/h 52.3% 0in /  0.0mm
21:29 50.2 °F /  10.1 °C 33.3 °F /  0.7 °C 29.7in /  1005.6hPa Sur 4.7mph /  7.6km/h 7mph /  11.3km/h 52.2% 0in /  0.0mm
21:34 50.2 °F /  10.1 °C 33.3 °F /  0.7 °C 29.7in /  1005.6hPa Sur 5mph /  8.1km/h 7.4mph /  11.9km/h 52% 0in /  0.0mm
21:39 50.4 °F /  10.2 °C 33.3 °F /  0.7 °C 29.7in /  1005.8hPa Sur 5.2mph /  8.4km/h 9.7mph /  15.6km/h 52% 0in /  0.0mm
21:44 50.2 °F /  10.1 °C 33.3 °F /  0.7 °C 29.7in /  1005.8hPa Sur 5.8mph /  9.4km/h 10mph /  16.1km/h 52% 0in /  0.0mm
21:49 50.2 °F /  10.1 °C 33.3 °F /  0.7 °C 29.7in /  1005.8hPa Sur 6.2mph /  10km/h 8.1mph /  13km/h 52% 0in /  0.0mm
21:54 50.2 °F /  10.1 °C 33.3 °F /  0.7 °C 29.7in /  1005.9hPa Sur 5.5mph /  8.9km/h 8mph /  12.9km/h 52% 0in /  0.0mm
21:59 50.2 °F /  10.1 °C 33.1 °F /  0.6 °C 29.7in /  1005.9hPa SSO 5.2mph /  8.4km/h 8.1mph /  13km/h 51.7% 0in /  0.0mm
22:04 50.4 °F /  10.2 °C 32.7 °F /  0.4 °C 29.7in /  1005.9hPa Sur 5.3mph /  8.6km/h 9.2mph /  14.8km/h 51% 0in /  0.0mm
22:09 50.4 °F /  10.2 °C 32.9 °F /  0.5 °C 29.7in /  1006.0hPa SSO 5.4mph /  8.7km/h 10.4mph /  16.7km/h 51% 0in /  0.0mm
22:14 50.4 °F /  10.2 °C 32.9 °F /  0.5 °C 29.7in /  1006.0hPa SSO 5.9mph /  9.5km/h 10mph /  16.1km/h 51% 0in /  0.0mm
22:19 50.4 °F /  10.2 °C 32.9 °F /  0.5 °C 29.7in /  1006.0hPa SSO 6.2mph /  10km/h 9.2mph /  14.8km/h 51% 0in /  0.0mm
22:24 50.4 °F /  10.2 °C 32.7 °F /  0.4 °C 29.7in /  1006.0hPa Sur 6mph /  9.7km/h 9mph /  14.5km/h 51% 0in /  0.0mm
22:29 50.4 °F /  10.2 °C 32.9 °F /  0.5 °C 29.7in /  1006.0hPa SSO 5.9mph /  9.5km/h 8mph /  12.9km/h 51% 0in /  0.0mm
22:34 50.2 °F /  10.1 °C 32.7 °F /  0.4 °C 29.7in /  1006.0hPa SSO 5.2mph /  8.3km/h 8mph /  12.9km/h 51% 0in /  0.0mm
22:39 50.2 °F /  10.1 °C 32.7 °F /  0.4 °C 29.7in /  1006.1hPa SSO 4.7mph /  7.6km/h 7mph /  11.3km/h 50.9% 0in /  0.0mm
22:44 50.2 °F /  10.1 °C 32.7 °F /  0.4 °C 29.7in /  1006.1hPa SSO 4.2mph /  6.8km/h 6.2mph /  10km/h 50.9% 0in /  0.0mm
22:49 50.2 °F /  10.1 °C 32.7 °F /  0.4 °C 29.7in /  1006.1hPa SSO 4mph /  6.5km/h 6mph /  9.7km/h 51% 0in /  0.0mm
22:54 50.2 °F /  10.1 °C 32.7 °F /  0.4 °C 29.7in /  1006.3hPa SO 3.7mph /  6km/h 6mph /  9.7km/h 51% 0in /  0.0mm
22:59 49.8 °F /  9.9 °C 32.7 °F /  0.4 °C 29.7in /  1006.3hPa SO 3.6mph /  5.8km/h 5mph /  8km/h 51.4% 0in /  0.0mm
23:04 49.6 °F /  9.8 °C 33.3 °F /  0.7 °C 29.7in /  1006.3hPa ONO 2.5mph /  4km/h 5mph /  8km/h 53% 0in /  0.0mm
23:09 49.3 °F /  9.6 °C 33.3 °F /  0.7 °C 29.7in /  1006.3hPa ONO 2mph /  3.2km/h 5mph /  8km/h 54% 0in /  0.0mm
23:14 48.7 °F /  9.3 °C 33.4 °F /  0.8 °C 29.7in /  1006.3hPa NO 2mph /  3.2km/h 5.9mph /  9.5km/h 55.4% 0in /  0.0mm
23:19 48 °F /  8.9 °C 33.8 °F /  1 °C 29.7in /  1006.3hPa NO 2mph /  3.2km/h 6mph /  9.7km/h 57.3% 0in /  0.0mm
23:24 47.7 °F /  8.7 °C 33.8 °F /  1 °C 29.7in /  1006.5hPa NO 2.6mph /  4.2km/h 5mph /  8km/h 58.5% 0in /  0.0mm
23:29 47.1 °F /  8.4 °C 33.6 °F /  0.9 °C 29.7in /  1006.5hPa NO 2.9mph /  4.7km/h 5mph /  8km/h 59% 0in /  0.0mm
23:34 47.1 °F /  8.4 °C 33.6 °F /  0.9 °C 29.7in /  1006.5hPa NO 2.3mph /  3.7km/h 5.2mph /  8.4km/h 59.4% 0in /  0.0mm
23:39 46.9 °F /  8.3 °C 33.4 °F /  0.8 °C 29.7in /  1006.7hPa ONO 2mph /  3.2km/h 5mph /  8km/h 59.4% 0in /  0.0mm
23:44 46.9 °F /  8.3 °C 33.8 °F /  1 °C 29.7in /  1006.7hPa Oeste 2.2mph /  3.6km/h 5mph /  8km/h 59.9% 0in /  0.0mm
23:49 47.1 °F /  8.4 °C 33.8 °F /  1 °C 29.7in /  1006.7hPa ONO 2.4mph /  3.9km/h 5mph /  8km/h 60% 0in /  0.0mm
23:54 46.9 °F /  8.3 °C 33.8 °F /  1 °C 29.7in /  1006.7hPa ONO 2.1mph /  3.4km/h 4mph /  6.4km/h 60% 0in /  0.0mm
23:59 46.9 °F /  8.3 °C 33.8 °F /  1 °C 29.7in /  1006.7hPa Oeste 2mph /  3.2km/h 5mph /  8km/h 60% 0in /  0.0mm
Murcia-Puente Tocinos, España
Compliments of Weather Underground - 3 mb

La estación de MeteoMurcia.com, publica sus datos en los siguientes proyectos:

Weather Underground PWS IMURCIAP2 Meteoclimatic www.awekas.at

W3Counter
Web Analytics